Terminal Aerodrome Forecast
Issued by NWS

Home | Current Version | Previous Version | Graphics & Text | Print | Product List | Glossary Off
Versions: 1 2 3 4 5 6 7 8 9 10 11 12 13 14 15 16 17 18 19 20 21 22 23

000
FTUS43 KDDC 281739 AAB
TAFHYS
TAF AMD
KHYS 281739Z 2818/2918 21013KT P6SM FEW250
     FM282300 16013KT P6SM FEW200
     FM290400 13013KT P6SM VCTS BKN090CB WS020/19050KT
     FM291000 15014KT P6SM BKN200=

USA.gov is the U.S. government's official web portal to all federal, state and local government web resources and services.